Time;durP1;ratioP1;P1;durP2;ratioP2;P2;SDS_P1;SDS_P2;PMS_P1;PMS_P2;Temp;Humidity;BMP_temperature;BMP_pressure;BME280_temperature;BME280_humidity;BME280_pressure;Samples;Min_cycle;Max_cycle;Signal;HPM_P1;HPM_P2
2023/12/04 00:00:18;;;;;;;15.67;9.63;;;1.00;88.10;;;0.72;53.71;98911.50;6124699;23;114089;-80
2023/12/04 00:02:48;;;;;;;16.33;9.60;;;0.60;87.50;;;0.70;53.82;98910.13;6122873;23;123748;-80
2023/12/04 00:05:15;;;;;;;23.03;11.03;;;0.60;87.50;;;0.67;54.13;98908.72;6124570;23;123881;-79
2023/12/04 00:07:42;;;;;;;17.40;10.70;;;0.60;88.20;;;0.65;53.89;98892.66;6102399;23;114647;-80
2023/12/04 00:10:22;;;;;;;16.93;8.70;;;0.60;88.00;;;0.66;53.83;98896.19;6130870;23;113963;-79
2023/12/04 00:12:49;;;;;;;18.10;9.83;;;0.60;87.90;;;0.65;53.79;98891.84;6078994;23;122933;-80
2023/12/04 00:15:18;;;;;;;17.33;10.60;;;0.50;87.80;;;0.65;54.10;98889.13;6078601;23;123179;-79
2023/12/04 00:17:45;;;;;;;17.20;9.63;;;0.50;87.90;;;0.63;54.23;98891.25;6102992;23;113980;-80
2023/12/04 00:20:19;;;;;;;17.50;9.23;;;0.50;87.80;;;0.62;53.84;98886.91;6102531;23;115184;-80
2023/12/04 00:22:45;;;;;;;15.60;9.40;;;2.10;89.10;;;0.58;54.45;98877.56;6128312;23;124247;-81
2023/12/04 00:25:12;;;;;;;14.57;9.70;;;0.50;88.90;;;0.54;54.28;98870.97;6124112;23;123999;-79
2023/12/04 00:27:43;;;;;;;17.03;9.20;;;0.50;87.70;;;0.55;54.18;98861.75;6100924;23;114306;-80
2023/12/04 00:30:10;;;;;;;18.90;9.60;;;2.90;90.00;;;0.49;53.59;98871.72;6125406;23;114434;-81
2023/12/04 00:32:41;;;;;;;15.50;9.67;;;0.50;87.70;;;0.46;54.17;98863.22;6125248;23;124032;-81
2023/12/04 00:35:16;;;;;;;17.20;9.43;;;0.30;87.50;;;0.42;54.19;98852.81;6099073;23;123137;-80
2023/12/04 00:37:44;;;;;;;17.37;9.67;;;0.40;87.60;;;0.42;54.13;98847.41;6123989;23;114276;-80
2023/12/04 00:40:11;;;;;;;19.90;10.53;;;0.40;87.80;;;0.43;54.38;98838.19;6098391;23;113976;-81
2023/12/04 00:42:41;;;;;;;15.77;9.40;;;0.40;87.90;;;0.46;54.53;98842.31;6124519;23;123968;-80
2023/12/04 00:45:19;;;;;;;21.23;11.43;;;2.20;90.00;;;0.43;53.99;98845.50;6096199;23;122434;-79
2023/12/04 00:47:50;;;;;;;17.83;10.00;;;0.40;88.10;;;0.41;54.52;98834.88;6125080;23;114223;-79
2023/12/04 00:50:23;;;;;;;19.27;10.30;;;0.40;88.10;;;0.39;54.34;98842.44;6098383;23;113789;-82
2023/12/04 00:52:58;;;;;;;15.97;9.67;;;0.30;88.20;;;0.42;54.41;98844.69;6099083;23;124094;-79
2023/12/04 00:55:24;;;;;;;18.03;9.97;;;0.30;88.30;;;0.44;54.27;98845.25;6097114;23;122653;-80
2023/12/04 00:57:51;;;;;;;17.37;9.30;;;0.90;88.70;;;0.46;54.71;98836.03;6124764;23;114301;-80
2023/12/04 01:00:18;;;;;;;18.60;10.90;;;0.30;88.20;;;0.47;54.51;98835.78;6126088;23;113871;-80
2023/12/04 01:02:51;;;;;;;20.23;10.60;;;0.40;88.30;;;0.43;54.76;98826.47;6098003;23;122611;-80
2023/12/04 01:05:20;;;;;;;17.53;10.43;;;0.50;88.50;;;0.39;54.37;98828.88;6097722;23;122582;-80
2023/12/04 01:07:49;;;;;;;15.60;9.53;;;2.00;90.20;;;0.36;54.23;98823.91;6125043;23;115892;-80
2023/12/04 01:10:17;;;;;;;18.63;10.67;;;0.30;88.30;;;0.34;54.19;98823.34;6098189;23;112949;-79
2023/12/04 01:12:44;;;;;;;16.23;9.93;;;0.30;88.40;;;0.28;54.91;98821.59;6096854;23;123307;-79
2023/12/04 01:15:16;;;;;;;15.83;9.73;;;0.20;88.30;;;0.27;54.23;98816.41;6096381;23;122838;-79
2023/12/04 01:17:46;;;;;;;18.90;10.27;;;0.10;88.70;;;0.26;54.58;98821.03;6072064;23;113946;-81
2023/12/04 01:20:18;;;;;;;18.90;9.70;;;0.20;88.50;;;0.29;55.14;98820.53;6123384;23;114040;-81
2023/12/04 01:22:44;;;;;;;17.70;9.53;;;0.20;88.50;;;0.33;54.48;98816.25;6120211;23;124273;-80
2023/12/04 01:25:14;;;;;;;18.67;10.10;;;-0.40;88.00;;;0.33;54.77;98821.69;6123011;23;122973;-80
2023/12/04 01:27:41;;;;;;;15.73;9.80;;;0.30;88.50;;;0.32;55.06;98825.47;6096365;23;113766;-80
2023/12/04 01:30:14;;;;;;;17.17;9.73;;;0.30;88.40;;;0.31;54.56;98812.16;6122837;23;112847;-80
2023/12/04 01:32:40;;;;;;;19.43;10.50;;;0.20;88.30;;;0.27;54.75;98800.94;6122689;23;124212;-80
2023/12/04 01:35:11;;;;;;;14.60;8.67;;;0.20;88.30;;;0.28;54.50;98794.44;6122174;23;123743;-79
2023/12/04 01:37:42;;;;;;;14.47;9.43;;;0.20;88.40;;;0.25;54.01;98797.66;6095480;23;112133;-83
2023/12/04 01:40:10;;;;;;;15.33;9.37;;;0.90;88.80;;;0.23;54.80;98797.06;6096839;23;112846;-80
2023/12/04 01:42:36;;;;;;;13.97;7.77;;;0.20;88.10;;;0.24;54.38;98790.53;6122399;23;123743;-81
2023/12/04 01:45:05;;;;;;;16.10;8.17;;;0.20;88.00;;;0.24;54.47;98784.28;6096203;23;123953;-81
2023/12/04 01:47:32;;;;;;;13.37;8.10;;;0.20;88.10;;;0.24;54.43;98787.84;6123107;23;113993;-81
2023/12/04 01:50:01;;;;;;;13.33;8.17;;;0.20;88.10;;;0.27;54.79;98779.22;6123227;23;113605;-80
2023/12/04 01:52:29;;;;;;;18.97;9.83;;;0.20;88.20;;;0.28;53.89;98786.28;6122820;23;124495;-80
2023/12/04 01:54:55;;;;;;;15.07;9.20;;;0.20;88.20;;;0.31;54.24;98790.41;6123642;23;124579;-80
2023/12/04 01:57:24;;;;;;;15.83;8.43;;;0.20;88.20;;;0.33;54.30;98785.56;6097019;23;115183;-80
2023/12/04 01:59:53;;;;;;;17.97;11.03;;;0.20;88.20;;;0.29;53.92;98781.66;6123025;23;115389;-79
2023/12/04 02:02:21;;;;;;;18.60;9.73;;;0.20;88.10;;;0.27;54.55;98779.22;6097975;23;123595;-81
2023/12/04 02:04:48;;;;;;;18.23;10.23;;;0.20;88.10;;;0.30;54.09;98781.44;6096696;23;123920;-81
2023/12/04 02:07:15;;;;;;;16.97;8.43;;;0.30;88.30;;;0.34;54.89;98779.84;6123431;23;113478;-79
2023/12/04 02:09:42;;;;;;;15.67;8.50;;;0.20;88.50;;;0.39;54.68;98785.38;6098269;23;113209;-82
2023/12/04 02:12:12;;;;;;;13.50;7.67;;;0.20;88.40;;;0.43;54.60;98782.97;6072943;23;123918;-81
2023/12/04 02:14:39;;;;;;;16.83;9.70;;;0.30;88.70;;;0.46;54.11;98776.22;6096730;23;123162;-80
2023/12/04 02:17:15;;;;;;;16.00;9.00;;;0.30;89.00;;;0.52;54.60;98777.97;6097685;23;114250;-80
2023/12/04 02:19:42;;;;;;;13.50;8.50;;;0.30;88.70;;;0.53;54.34;98768.75;6123909;23;113983;-79
2023/12/04 02:22:14;;;;;;;15.60;9.20;;;0.40;88.80;;;0.56;54.15;98765.53;6124079;23;123906;-79
2023/12/04 02:24:40;;;;;;;16.70;8.80;;;0.40;88.70;;;0.57;54.45;98759.03;6097742;23;122449;-82
2023/12/04 02:27:21;;;;;;;13.87;9.27;;;2.90;90.40;;;0.60;54.60;98753.09;6099039;23;114279;-79
2023/12/04 02:29:59;;;;;;;13.13;8.30;;;0.40;88.80;;;0.59;54.75;98751.44;6097685;23;113382;-79
2023/12/04 02:32:34;;;;;;;16.63;9.43;;;0.40;88.50;;;0.53;54.51;98755.97;6124024;23;124597;-80
2023/12/04 02:35:04;;;;;;;15.27;8.70;;;0.30;88.30;;;0.50;53.92;98755.66;6100381;23;123192;-81
2023/12/04 02:37:34;;;;;;;15.60;9.80;;;0.30;88.30;;;0.46;54.28;98749.91;6136317;23;114113;-83
2023/12/04 02:40:01;;;;;;;14.63;8.40;;;0.30;88.40;;;0.44;54.15;98752.03;6132843;23;113642;-80
2023/12/04 02:42:31;;;;;;;16.60;8.90;;;0.30;88.30;;;0.42;54.02;98756.88;6100368;23;121999;-81
2023/12/04 02:45:00;;;;;;;13.33;8.20;;;1.80;89.60;;;0.38;53.66;98756.56;6126629;23;124131;-82
2023/12/04 02:47:52;;;;;;;13.60;8.53;;;0.30;88.10;;;0.39;54.09;98755.50;6102024;23;115053;-85
2023/12/04 02:50:29;;;;;;;18.70;10.50;;;0.30;88.10;;;0.37;54.06;98757.63;6117641;23;114099;-83
2023/12/04 02:52:57;;;;;;;14.17;7.80;;;0.20;88.10;;;0.35;54.00;98753.50;6131039;23;123665;-83
2023/12/04 02:55:29;;;;;;;16.27;8.93;;;0.20;88.10;;;0.38;54.13;98747.59;6101795;23;123052;-83
2023/12/04 02:58:12;;;;;;;14.60;8.70;;;0.20;88.20;;;0.41;54.52;98734.31;6133463;23;113460;-83
2023/12/04 03:00:39;;;;;;;15.00;8.50;;;2.20;90.20;;;0.42;54.65;98727.81;6132589;23;113642;-81
2023/12/04 03:03:06;;;;;;;14.80;8.50;;;1.50;89.40;;;0.43;54.41;98715.88;6104342;23;123619;-82
2023/12/04 03:05:35;;;;;;;18.30;10.23;;;0.30;88.30;;;0.43;53.82;98713.16;6129965;23;123297;-82
2023/12/04 03:08:03;;;;;;;16.87;9.30;;;0.30;88.30;;;0.44;54.09;98703.13;6130933;23;114069;-82
2023/12/04 03:10:42;;;;;;;15.10;8.80;;;0.30;88.10;;;0.44;54.10;98695.78;6127674;23;112304;-82
2023/12/04 03:13:14;;;;;;;14.27;8.67;;;0.20;88.10;;;0.42;53.92;98689.75;6129491;23;124231;-82
2023/12/04 03:15:52;;;;;;;17.13;9.33;;;0.30;88.50;;;0.43;53.58;98688.72;6128244;23;123834;-82
2023/12/04 03:18:30;;;;;;;15.73;8.40;;;-1.90;86.30;;;0.43;54.39;98691.44;6101500;23;114432;-82
2023/12/04 03:21:06;;;;;;;15.13;8.27;;;0.30;88.20;;;0.41;53.98;98688.13;6127489;23;114101;-81
2023/12/04 03:23:33;;;;;;;13.47;8.30;;;0.20;88.20;;;0.41;54.48;98682.69;6100868;23;122739;-79
2023/12/04 03:26:09;;;;;;;14.17;8.60;;;0.30;88.30;;;0.45;53.94;98672.13;6100727;23;121870;-81
2023/12/04 03:28:36;;;;;;;14.23;8.10;;;0.30;88.30;;;0.47;54.02;98675.44;6102917;23;113302;-82
2023/12/04 03:31:11;;;;;;;12.63;8.10;;;0.30;88.50;;;0.52;54.06;98669.25;6131057;23;113322;-83
2023/12/04 03:33:40;;;;;;;16.27;8.90;;;0.30;88.50;;;0.54;54.01;98665.22;6105360;23;123029;-82
2023/12/04 03:36:20;;;;;;;14.80;8.50;;;3.00;90.40;;;0.57;54.43;98661.19;6106111;23;123564;-82
2023/12/04 03:38:51;;;;;;;16.17;8.23;;;0.40;88.40;;;0.57;54.17;98666.63;6130341;23;115088;-81
2023/12/04 03:41:17;;;;;;;13.23;7.47;;;0.40;88.40;;;0.59;54.21;98656.28;6104237;23;115111;-83
2023/12/04 03:43:45;;;;;;;14.83;7.83;;;0.40;88.40;;;0.61;53.72;98649.53;6128963;23;123863;-81
2023/12/04 03:46:16;;;;;;;13.90;8.17;;;0.80;88.70;;;0.64;53.79;98637.34;6102982;23;123500;-81
2023/12/04 03:48:48;;;;;;;15.73;8.80;;;0.40;88.30;;;0.64;54.18;98632.72;6130474;23;114294;-82
2023/12/04 03:51:21;;;;;;;13.13;8.43;;;0.40;88.40;;;0.63;53.95;98624.81;6103749;23;113737;-83
2023/12/04 03:53:49;;;;;;;17.00;8.43;;;0.40;88.10;;;0.59;53.95;98635.38;6105190;23;122147;-81
2023/12/04 03:56:22;;;;;;;15.30;9.20;;;0.40;88.00;;;0.55;53.69;98627.97;6132781;23;123014;-81
2023/12/04 03:58:49;;;;;;;19.60;9.70;;;0.40;87.90;;;0.49;53.59;98634.44;6132720;23;114189;-81
2023/12/04 04:01:18;;;;;;;15.70;8.77;;;0.40;87.80;;;0.47;53.71;98634.66;6133213;23;113063;-81
2023/12/04 04:03:46;;;;;;;16.10;9.20;;;0.30;87.80;;;0.44;53.65;98621.59;6131945;23;124005;-84
2023/12/04 04:06:21;;;;;;;13.47;8.63;;;0.30;87.80;;;0.43;54.31;98623.50;6132099;23;123674;-82
2023/12/04 04:08:50;;;;;;;16.60;9.23;;;1.90;89.40;;;0.44;53.70;98638.72;6106626;23;113026;-84
2023/12/04 04:11:16;;;;;;;19.90;10.23;;;0.30;87.90;;;0.43;53.74;98630.78;6106840;23;113256;-83
2023/12/04 04:13:52;;;;;;;13.53;8.43;;;0.30;87.90;;;0.48;53.92;98638.19;6133029;23;123919;-83
2023/12/04 04:16:22;;;;;;;17.40;9.33;;;0.30;88.30;;;0.46;53.61;98626.75;6107602;23;123550;-82
2023/12/04 04:18:52;;;;;;;16.80;9.40;;;0.30;87.80;;;0.42;53.86;98627.25;6135252;23;113710;-83
2023/12/04 04:21:28;;;;;;;16.37;9.30;;;0.30;87.70;;;0.38;53.78;98607.09;6108795;23;114202;-83
2023/12/04 04:24:05;;;;;;;15.90;9.67;;;1.90;89.00;;;0.35;53.77;98614.91;6132280;23;124348;-84
2023/12/04 04:26:31;;;;;;;16.40;9.10;;;0.30;87.80;;;0.34;54.11;98616.81;6108376;23;123280;-84
2023/12/04 04:29:00;;;;;;;12.10;7.40;;;0.30;87.70;;;0.35;53.93;98615.75;6133806;23;114283;-82
2023/12/04 04:31:27;;;;;;;14.13;8.80;;;0.30;87.80;;;0.36;54.42;98622.00;6107085;23;114966;-81
2023/12/04 04:34:00;;;;;;;16.93;8.40;;;0.30;87.80;;;0.41;54.12;98630.25;6133939;23;123077;-82
2023/12/04 04:36:27;;;;;;;19.03;9.50;;;0.30;87.80;;;0.38;54.08;98628.84;6106439;23;123854;-82
2023/12/04 04:39:08;;;;;;;14.00;8.27;;;0.30;87.80;;;0.39;53.65;98621.50;6082258;23;112842;-82
2023/12/04 04:41:37;;;;;;;12.57;7.83;;;0.30;87.70;;;0.36;54.10;98613.88;6106757;23;112162;-81
2023/12/04 04:44:11;;;;;;;15.67;8.47;;;1.00;88.50;;;0.36;54.15;98620.13;6082199;23;122617;-84
2023/12/04 04:46:37;;;;;;;11.57;6.70;;;0.20;87.60;;;0.35;54.11;98626.63;6132469;23;122303;-83
2023/12/04 04:49:06;;;;;;;11.40;7.00;;;0.20;87.70;;;0.36;53.26;98620.13;6133601;23;113459;-82
2023/12/04 04:51:37;;;;;;;13.10;7.40;;;0.20;87.60;;;0.37;53.31;98620.94;6132606;23;114168;-84
2023/12/04 04:54:09;;;;;;;15.33;7.87;;;0.30;87.60;;;0.38;54.01;98617.16;6130775;23;123485;-82
2023/12/04 04:56:39;;;;;;;15.53;7.90;;;0.30;87.70;;;0.37;53.86;98610.88;6079384;23;121798;-82
2023/12/04 04:59:05;;;;;;;15.10;7.50;;;1.30;88.50;;;0.39;53.56;98618.78;6080271;23;112529;-82
2023/12/04 05:01:36;;;;;;;12.00;7.00;;;0.30;87.60;;;0.39;53.93;98605.22;6130206;23;112174;-82
2023/12/04 05:04:10;;;;;;;13.33;8.23;;;0.30;87.60;;;0.39;53.45;98611.47;6107255;23;123436;-83
2023/12/04 05:06:43;;;;;;;16.37;8.10;;;0.30;87.60;;;0.41;53.40;98606.59;6133484;23;122783;-84
2023/12/04 05:09:11;;;;;;;11.90;6.90;;;0.30;87.50;;;0.43;53.52;98598.19;6132569;23;113572;-82
2023/12/04 05:11:45;;;;;;;15.70;8.33;;;0.30;87.60;;;0.45;53.09;98596.03;6106545;23;112053;-81
2023/12/04 05:14:13;;;;;;;14.53;8.00;;;0.30;87.60;;;0.47;53.70;98598.53;6132565;23;123772;-81
2023/12/04 05:16:40;;;;;;;16.83;8.27;;;0.30;87.60;;;0.48;53.44;98589.28;6133050;23;123026;-82
2023/12/04 05:19:10;;;;;;;13.23;7.97;;;0.30;87.50;;;0.49;53.46;98580.06;6132269;23;115470;-82
2023/12/04 05:21:36;;;;;;;15.03;7.90;;;0.30;87.50;;;0.48;53.73;98578.41;6106881;23;115283;-81
2023/12/04 05:24:03;;;;;;;14.23;8.17;;;0.30;87.40;;;0.44;53.23;98568.03;6133634;23;124015;-84
2023/12/04 05:26:33;;;;;;;16.77;9.00;;;0.30;87.20;;;0.36;53.80;98571.19;6131951;23;124153;-82
2023/12/04 05:29:03;;;;;;;14.07;8.80;;;1.00;87.90;;;0.34;53.42;98564.38;6131777;23;114544;-81
2023/12/04 05:31:31;;;;;;;12.97;8.20;;;0.20;87.30;;;0.30;53.54;98555.91;6106220;23;114255;-83
2023/12/04 05:33:57;;;;;;;14.53;8.73;;;0.20;87.20;;;0.26;53.46;98554.75;6134559;23;124113;-82
2023/12/04 05:36:33;;;;;;;15.30;8.60;;;0.20;87.30;;;0.24;54.25;98551.47;6133416;23;122737;-82
2023/12/04 05:39:07;;;;;;;11.73;8.10;;;0.10;87.40;;;0.22;53.61;98548.19;6133120;23;113771;-82
2023/12/04 05:41:33;;;;;;;15.83;8.43;;;1.70;89.20;;;0.23;54.12;98538.97;6136958;23;113903;-82
2023/12/04 05:44:01;;;;;;;14.03;8.03;;;0.10;88.00;;;0.24;53.77;98540.59;6132278;23;123333;-81
2023/12/04 05:46:36;;;;;;;17.80;9.53;;;0.10;88.30;;;0.25;54.68;98536.00;6131257;23;124171;-82
2023/12/04 05:49:02;;;;;;;16.03;8.47;;;0.00;88.60;;;0.24;54.30;98540.59;6131327;23;113924;-82
2023/12/04 05:51:29;;;;;;;16.73;9.07;;;0.10;88.70;;;0.26;54.29;98549.31;6104413;23;111997;-82
2023/12/04 05:53:58;;;;;;;18.17;7.97;;;0.10;89.10;;;0.28;54.64;98547.19;6106814;23;124402;-82
2023/12/04 05:56:25;;;;;;;13.30;7.47;;;0.10;89.00;;;0.29;54.55;98537.94;6080387;23;122879;-84
2023/12/04 05:58:54;;;;;;;13.70;7.70;;;0.10;88.90;;;0.32;54.35;98551.03;6133012;23;114520;-82
2023/12/04 06:01:20;;;;;;;15.47;8.20;;;2.10;90.20;;;0.35;54.60;98534.25;6106509;23;113149;-81
2023/12/04 06:03:58;;;;;;;12.40;8.20;;;0.20;89.50;;;0.41;54.18;98530.50;6109235;23;123171;-82
2023/12/04 06:06:30;;;;;;;16.60;7.90;;;0.20;88.70;;;0.43;53.98;98538.38;6134531;23;123164;-83
2023/12/04 06:09:01;;;;;;;14.00;7.70;;;2.50;90.20;;;0.39;54.00;98532.66;6135037;23;115393;-82
2023/12/04 06:11:38;;;;;;;16.77;8.53;;;0.20;88.40;;;0.41;53.71;98546.81;6132700;23;114062;-81
2023/12/04 06:14:05;;;;;;;13.00;7.40;;;0.20;88.20;;;0.41;54.11;98548.72;6104844;23;122577;-82
2023/12/04 06:16:41;;;;;;;13.10;7.50;;;0.20;88.30;;;0.44;53.91;98551.75;6131892;23;124111;-83
2023/12/04 06:19:10;;;;;;;11.40;6.97;;;4.00;90.70;;;0.49;54.41;98556.44;6135909;23;113548;-84
2023/12/04 06:21:39;;;;;;;13.30;8.27;;;0.30;88.60;;;0.52;54.48;98542.31;6134390;23;113533;-82
2023/12/04 06:24:10;;;;;;;12.93;7.67;;;0.30;88.50;;;0.54;53.80;98539.34;6108321;23;123119;-81
2023/12/04 06:26:43;;;;;;;14.07;8.20;;;0.30;88.40;;;0.55;53.59;98541.00;6108560;23;122266;-81
2023/12/04 06:29:11;;;;;;;12.73;6.63;;;0.30;88.30;;;0.59;54.89;98531.25;6137670;23;113067;-84
2023/12/04 06:31:44;;;;;;;12.50;7.13;;;0.40;89.20;;;0.74;56.16;98533.34;6138503;23;112948;-82
2023/12/04 06:34:13;;;;;;;15.17;7.47;;;0.40;90.60;;;0.88;56.42;98537.28;6135892;23;124177;-84
2023/12/04 06:36:40;;;;;;;20.33;8.27;;;0.50;90.90;;;0.99;56.62;98530.88;6139799;23;124104;-83
2023/12/04 06:39:16;;;;;;;13.00;7.03;;;0.60;91.20;;;1.08;56.53;98528.53;6115755;23;113987;-80
2023/12/04 06:41:46;;;;;;;12.90;8.33;;;0.70;91.20;;;1.12;57.13;98523.38;6141763;23;113387;-83
2023/12/04 06:44:13;;;;;;;12.73;7.13;;;0.70;91.20;;;1.23;57.26;98519.66;6143758;23;123770;-82
2023/12/04 06:46:46;;;;;;;13.10;7.70;;;0.80;91.60;;;1.31;57.44;98514.56;6142045;23;124005;-82
2023/12/04 06:49:19;;;;;;;13.80;7.93;;;0.90;92.00;;;1.39;57.32;98512.47;6089823;23;112468;-81
2023/12/04 06:51:48;;;;;;;13.17;8.00;;;0.90;91.70;;;1.47;57.08;98501.09;6091741;23;111707;-81
2023/12/04 06:54:21;;;;;;;15.80;8.87;;;2.20;92.40;;;1.48;56.62;98502.75;6138841;23;124714;-81
2023/12/04 06:56:48;;;;;;;13.90;7.90;;;1.00;91.50;;;1.40;56.03;98503.19;6112181;23;123100;-82
2023/12/04 06:59:18;;;;;;;14.40;7.63;;;1.00;91.20;;;1.37;55.52;98506.44;6109863;23;114116;-83
2023/12/04 07:01:55;;;;;;;14.43;8.20;;;1.00;91.00;;;1.34;55.81;98510.50;6113151;23;114501;-82
2023/12/04 07:04:22;;;;;;;15.43;8.73;;;1.00;90.80;;;1.30;55.57;98510.22;6126578;23;124247;-81
2023/12/04 07:06:52;;;;;;;12.40;7.40;;;1.00;90.60;;;1.29;55.19;98515.91;6100504;23;122887;-79
2023/12/04 07:09:18;;;;;;;15.73;9.00;;;3.40;91.40;;;1.24;55.15;98505.00;6129639;23;114247;-80
2023/12/04 07:11:47;;;;;;;14.80;8.67;;;1.00;90.30;;;1.22;54.61;98507.97;6132427;23;114016;-82
2023/12/04 07:14:19;;;;;;;15.20;9.90;;;1.00;90.20;;;1.15;54.27;98501.09;6103972;23;123754;-81
2023/12/04 07:16:46;;;;;;;14.60;8.53;;;0.90;89.60;;;1.05;54.46;98507.28;6112486;23;123610;-81
2023/12/04 07:19:14;;;;;;;14.73;9.40;;;0.90;89.60;;;1.00;54.56;98496.34;6108387;23;112640;-81
2023/12/04 07:21:41;;;;;;;16.80;9.40;;;0.80;89.20;;;0.92;53.92;98491.38;6133671;23;114231;-83
2023/12/04 07:24:12;;;;;;;13.97;8.43;;;0.70;88.60;;;0.81;53.69;98494.00;6140884;23;123395;-83
2023/12/04 07:26:43;;;;;;;13.53;8.10;;;2.60;90.10;;;0.79;53.77;98481.72;6143302;23;123586;-85
2023/12/04 07:29:13;;;;;;;16.13;8.60;;;0.60;88.80;;;0.79;54.33;98493.41;6141569;23;114281;-82
2023/12/04 07:31:45;;;;;;;12.90;8.23;;;0.60;88.90;;;0.81;54.06;98491.28;6117595;23;112601;-82
2023/12/04 07:34:12;;;;;;;15.67;8.70;;;0.60;88.90;;;0.79;53.85;98490.69;6144985;23;123759;-84
2023/12/04 07:36:44;;;;;;;15.10;9.03;;;0.60;88.70;;;0.77;53.84;98483.88;6119208;23;122152;-82
2023/12/04 07:39:13;;;;;;;15.70;9.43;;;2.20;89.80;;;0.66;53.71;98477.50;6140807;22;112732;-82
2023/12/04 07:41:42;;;;;;;15.40;8.40;;;0.50;87.50;;;0.59;53.22;98482.31;6092199;23;112537;-82
2023/12/04 07:44:11;;;;;;;15.70;8.77;;;0.50;87.80;;;0.58;54.02;98483.41;6141517;23;123198;-81
2023/12/04 07:46:39;;;;;;;16.33;8.17;;;0.50;88.10;;;0.62;53.76;98476.41;6111899;23;123194;-81
2023/12/04 07:49:08;;;;;;;16.13;8.10;;;2.10;89.80;;;0.65;53.90;98482.13;6137659;23;115500;-81
2023/12/04 07:51:35;;;;;;;14.20;8.30;;;0.50;88.30;;;0.65;54.32;98479.41;6113646;23;113399;-81
2023/12/04 07:54:08;;;;;;;15.53;8.17;;;0.50;88.30;;;0.67;53.72;98484.56;6118066;23;122374;-82
2023/12/04 07:56:43;;;;;;;15.57;8.50;;;0.50;88.20;;;0.66;53.60;98475.59;6142999;23;124163;-81
2023/12/04 07:59:11;;;;;;;13.73;8.33;;;0.50;88.20;;;0.72;54.00;98467.50;6118287;23;114268;-82
2023/12/04 08:01:40;;;;;;;15.03;8.60;;;0.50;88.30;;;0.76;54.13;98471.38;6134686;23;114698;-82
2023/12/04 08:04:07;;;;;;;17.07;9.07;;;0.60;88.50;;;0.80;53.41;98467.84;6130887;23;125853;-80
2023/12/04 08:07:17;;;;;;;15.77;8.13;;;0.60;88.60;;;0.88;53.97;98474.72;6139151;23;124352;-82
2023/12/04 08:10:57;;;;;;;15.43;8.53;;;-1.60;86.70;;;0.93;54.41;98472.06;6088091;23;113886;-82
2023/12/04 08:13:35;;;;;;;14.00;8.37;;;-0.70;88.00;;;1.03;58.31;98485.75;6099785;23;114240;-80
2023/12/04 08:16:39;;;;;;;17.53;8.80;;;-1.60;93.60;;;1.21;57.78;98460.09;6106567;23;124783;-83
2023/12/04 08:19:42;;;;;;;14.37;8.37;;;-1.10;91.40;;;1.31;57.57;98457.41;6086292;23;123069;-81
2023/12/04 08:22:24;;;;;;;13.60;7.93;;;3.00;93.60;;;1.40;56.45;98454.22;6083230;23;114758;-81
2023/12/04 08:25:40;;;;;;;13.57;7.93;;;1.10;92.00;;;1.39;55.72;98449.84;6011425;23;113388;-81
2023/12/04 08:28:53;;;;;;;13.63;7.40;;;1.20;91.60;;;1.40;55.84;98437.88;6048668;23;123697;-81
2023/12/04 08:31:37;;;;;;;14.13;7.57;;;1.90;91.50;;;1.38;55.48;98429.19;6068837;23;123670;-82
2023/12/04 08:34:45;;;;;;;16.60;7.80;;;3.10;91.70;;;1.39;54.77;98430.81;6109451;23;114144;-82
2023/12/04 08:37:42;;;;;;;11.00;7.47;;;1.70;91.20;;;1.43;54.72;98421.03;6084263;23;113545;-81
2023/12/04 08:40:25;;;;;;;15.60;8.40;;;-0.30;89.90;;;1.41;53.81;98425.94;6083460;23;123717;-82
2023/12/04 08:42:54;;;;;;;14.83;8.33;;;4.50;93.50;;;1.41;54.24;98424.03;6081058;23;122744;-81
2023/12/04 08:45:30;;;;;;;12.73;7.70;;;4.00;92.00;;;1.46;54.19;98436.84;6031678;23;114589;-82
2023/12/04 08:48:30;;;;;;;13.93;8.40;;;-1.60;87.00;;;1.53;53.99;98437.41;6080948;23;114388;-83
2023/12/04 08:51:03;;;;;;;11.30;7.00;;;2.00;90.60;;;1.53;54.02;98431.97;6081650;23;124747;-81
2023/12/04 08:53:36;;;;;;;15.13;8.30;;;1.60;90.50;;;1.55;53.63;98424.38;6104683;23;122653;-83
2023/12/04 08:56:14;;;;;;;13.87;7.57;;;0.90;89.50;;;1.55;53.25;98430.63;6100560;23;114054;-81
2023/12/04 08:59:22;;;;;;;12.17;7.07;;;0.40;89.20;;;1.60;53.18;98427.13;6028820;23;112517;-83
2023/12/04 09:02:08;;;;;;;11.27;6.50;;;0.10;87.40;;;1.58;52.96;98417.59;6019945;23;122814;-83
2023/12/04 09:08:06;;;;;;;11.33;6.70;;;1.40;88.10;;;1.56;52.86;98442.38;6116004;22;96270;-83
2023/12/04 09:13:43;;;;;;;9.97;6.17;;;1.40;87.90;;;1.57;52.68;98426.84;6106984;23;96609;-80
2023/12/04 09:17:27;;;;;;;11.40;6.80;;;-1.80;85.40;;;1.61;52.73;98420.59;6063090;23;123953;-83
2023/12/04 09:20:28;;;;;;;11.70;7.77;;;-0.70;85.70;;;1.51;51.92;98423.28;6066774;23;114111;-84
2023/12/04 09:24:07;;;;;;;10.73;6.40;;;-1.60;83.50;;;1.50;51.95;98421.63;6077018;23;114181;-81
2023/12/04 09:27:36;;;;;;;11.30;6.40;;;1.60;87.10;;;1.55;52.57;98413.47;6065702;23;124790;-81
2023/12/04 09:31:13;;;;;;;10.40;6.10;;;0.20;86.00;;;1.63;52.22;98417.63;5980143;23;124365;-82
2023/12/04 09:34:49;;;;;;;12.83;7.43;;;2.20;87.70;;;1.67;52.02;98416.03;6028793;23;114749;-81
2023/12/04 09:38:32;;;;;;;10.10;6.37;;;-0.50;85.30;;;1.69;52.51;98414.69;5982908;23;113701;-84
2023/12/04 09:41:51;;;;;;;11.27;6.83;;;0.00;85.70;;;1.72;52.36;98414.13;5854294;23;123461;-83
2023/12/04 09:49:07;;;;;;;10.03;6.50;;;3.10;89.80;;;1.70;52.21;98416.31;5857717;23;115698;-82
2023/12/04 09:53:03;;;;;;;8.60;5.63;;;-1.50;85.50;;;1.68;52.65;98414.94;5756012;24;114641;-83
2023/12/04 09:56:25;;;;;;;11.80;7.40;;;1.10;86.90;;;1.63;52.78;98414.91;5793829;24;125871;-84
2023/12/04 10:00:17;;;;;;;12.03;6.80;;;-1.40;85.00;;;1.58;53.28;98407.50;5833858;24;122906;-84
2023/12/04 10:03:36;;;;;;;11.23;6.63;;;1.80;87.80;;;1.58;53.53;98431.19;5799423;24;114970;-82
2023/12/04 10:11:37;;;;;;;10.00;6.27;;;0.40;87.00;;;1.68;53.45;98391.22;5701997;24;124544;-84
2023/12/04 10:19:41;;;;;;;14.23;7.00;;;-0.20;86.70;;;1.70;53.60;98383.63;5780703;24;115379;-83
2023/12/04 10:23:28;;;;;;;8.33;5.10;;;4.40;90.40;;;1.71;53.67;98390.69;5781410;24;114729;-84
2023/12/04 10:26:41;;;;;;;12.53;6.97;;;1.20;88.10;;;1.74;53.61;98375.72;5784619;24;123194;-84
2023/12/04 10:30:14;;;;;;;10.03;6.60;;;3.60;91.20;;;1.78;53.78;98376.84;5866833;23;123733;-82
2023/12/04 10:34:12;;;;;;;12.43;5.07;;;-0.10;87.10;;;1.86;53.63;98370.91;5934479;23;114971;-82
2023/12/04 10:38:09;;;;;;;10.50;5.80;;;1.20;88.50;;;1.95;53.46;98363.03;5934214;23;114729;-83
2023/12/04 10:41:52;;;;;;;8.93;4.90;;;1.80;89.10;;;2.06;53.68;98361.97;5835411;24;123506;-84
2023/12/04 10:49:32;;;;;;;11.33;7.20;;;0.20;87.80;;;2.22;53.55;98336.38;5780459;24;115321;-82
2023/12/04 10:52:54;;;;;;;9.83;6.20;;;-0.50;87.10;;;2.24;53.37;98318.97;5758534;24;113729;-81
2023/12/04 10:56:30;;;;;;;10.47;6.17;;;1.40;88.70;;;2.31;53.56;98327.69;5775752;24;123856;-83
2023/12/04 10:59:41;;;;;;;11.70;6.60;;;2.70;90.40;;;2.36;53.96;98325.78;5763532;24;123779;-82
2023/12/04 11:03:25;;;;;;;11.63;7.00;;;0.60;88.00;;;2.43;53.61;98309.16;5767621;24;114850;-85
2023/12/04 11:06:24;;;;;;;15.80;6.17;;;0.70;88.10;;;2.48;53.56;98283.81;5785758;24;115894;-82
2023/12/04 11:09:10;;;;;;;10.10;5.27;;;2.90;90.90;;;2.58;53.82;98271.00;5805197;24;124047;-81
2023/12/04 11:12:20;;;;;;;10.00;5.77;;;2.20;89.60;;;2.72;53.64;98284.91;5790912;24;123105;-81
2023/12/04 11:16:04;;;;;;;11.20;6.93;;;2.40;89.80;;;2.81;53.42;98274.25;5774217;24;114146;-85
2023/12/04 11:19:44;;;;;;;15.97;9.50;;;2.90;89.90;;;2.75;53.01;98278.91;5800068;24;114593;-82
2023/12/04 11:22:51;;;;;;;17.87;10.13;;;2.50;89.20;;;2.69;53.37;98279.16;5843700;24;123836;-81
2023/12/04 11:26:10;;;;;;;17.20;9.33;;;3.10;90.50;;;2.71;53.18;98266.06;5876584;23;123473;-82
2023/12/04 11:29:00;;;;;;;14.40;8.80;;;6.30;92.00;;;2.74;53.66;98263.63;5901972;23;114096;-83
2023/12/04 11:32:16;;;;;;;12.77;8.43;;;2.90;90.50;;;2.77;53.35;98268.53;5898245;23;114224;-82
2023/12/04 11:35:30;;;;;;;17.37;8.37;;;1.10;87.90;;;2.83;53.91;98269.34;5936451;23;122876;-81